^^
Station Historical Data
Daily Summary for December 4, 2019 Units:  English    Metric   Both
« Previous Day
Next Day »
Daily Weekly Monthly Yearly Custom
  High: Low: Average:
Temperature: 40.2 °F 24.3 °F 31 °F
Dew Point: 31.5 °F 21.8 °F 26.7 °F
Humidity: 93% 70% 84%
Wind Speed: 15mph 0mph 5.6mph
Wind Gust: 19mph - -
Wind- - SSW
Pressure: 29.98 in 29.87 in -
Precipitation: 0 in    
Historical Graphs
 
 
Tabular Data for December 4, 2019
Time Temperature Dew Point Pressure Wind Wind Speed Wind Gust Humidity Rainfall Rate (Hourly) solar Conditions
00:00 32.8 °F 27.9 °F 29.92 in WNW 8 mph 12 mph 82% 0 in 0.00 W/m2
00:05 32.5 °F 27.6 °F 29.92 in West 7 mph 10 mph 82% 0 in 0.00 W/m2
00:10 31.9 °F 27 °F 29.92 in West 9 mph 10 mph 82% 0 in 0.00 W/m2
00:15 31.9 °F 27.3 °F 29.93 in WSW 8 mph 11 mph 83% 0 in 0.00 W/m2
00:20 31 °F 26.4 °F 29.93 in West 8 mph 11 mph 83% 0 in 0.00 W/m2
00:25 31 °F 26.7 °F 29.93 in West 6 mph 11 mph 84% 0 in 0.00 W/m2
00:30 31.3 °F 27 °F 29.93 in West 7 mph 11 mph 84% 0 in 0.00 W/m2
00:35 32.3 °F 28 °F 29.92 in WNW 5 mph 13 mph 84% 0 in 0.00 W/m2
00:40 32.9 °F 28.3 °F 29.91 in West 15 mph 16 mph 83% 0 in 0.00 W/m2
00:45 33.3 °F 28.4 °F 29.92 in WNW 10 mph 16 mph 82% 0 in 0.00 W/m2
00:50 33.5 °F 28.3 °F 29.92 in West 9 mph 16 mph 81% 0 in 0.00 W/m2
00:55 33.6 °F 28.7 °F 29.92 in SW 9 mph 17 mph 82% 0 in 0.00 W/m2
01:00 33.5 °F 28.3 °F 29.92 in WSW 9 mph 17 mph 81% 0 in 0.00 W/m2
01:05 32.9 °F 28 °F 29.92 in West 6 mph 17 mph 82% 0 in 0.00 W/m2
01:10 33.1 °F 28.2 °F 29.92 in West 11 mph 17 mph 82% 0 in 0.00 W/m2
01:15 33.7 °F 28.8 °F 29.92 in West 14 mph 15 mph 82% 0 in 0.00 W/m2
01:20 33.6 °F 28.7 °F 29.92 in WNW 10 mph 15 mph 82% 0 in 0.00 W/m2
01:25 33.9 °F 28.7 °F 29.92 in West 9 mph 19 mph 81% 0 in 0.00 W/m2
01:30 33.9 °F 28.7 °F 29.92 in West 11 mph 19 mph 81% 0 in 0.00 W/m2
01:35 33.4 °F 28.2 °F 29.92 in WSW 5 mph 19 mph 81% 0 in 0.00 W/m2
01:40 32.8 °F 27.9 °F 29.92 in WSW 3 mph 19 mph 82% 0 in 0.00 W/m2
01:45 32.2 °F 27.3 °F 29.92 in West 3 mph 8 mph 82% 0 in 0.00 W/m2
01:50 31.8 °F 27.2 °F 29.92 in WNW 4 mph 6 mph 83% 0 in 0.00 W/m2
01:55 31.7 °F 27.4 °F 29.93 in West 3 mph 8 mph 84% 0 in 0.00 W/m2
02:00 31.5 °F 27.2 °F 29.93 in WNW 7 mph 8 mph 84% 0 in 0.00 W/m2
02:05 31.5 °F 27.2 °F 29.93 in West 4 mph 8 mph 84% 0 in 0.00 W/m2
02:10 31.3 °F 27 °F 29.93 in West 4 mph 8 mph 84% 0 in 0.00 W/m2
02:15 31.5 °F 27.5 °F 29.93 in WNW 4 mph 8 mph 85% 0 in 0.00 W/m2
02:20 31.4 °F 27.4 °F 29.93 in WSW 7 mph 8 mph 85% 0 in 0.00 W/m2
02:25 31.1 °F 26.8 °F 29.92 in WSW 8 mph 9 mph 84% 0 in 0.00 W/m2
02:30 30.9 °F 26.6 °F 29.92 in WSW 8 mph 12 mph 84% 0 in 0.00 W/m2
02:35 30.2 °F 25.9 °F 29.93 in WSW 8 mph 12 mph 84% 0 in 0.00 W/m2
02:40 29.7 °F 25.7 °F 29.93 in West 10 mph 12 mph 85% 0 in 0.00 W/m2
02:45 30.8 °F 26.8 °F 29.93 in West 12 mph 16 mph 85% 0 in 0.00 W/m2
02:50 31.3 °F 26.7 °F 29.93 in West 14 mph 18 mph 83% 0 in 0.00 W/m2
02:55 31.2 °F 26.6 °F 29.94 in West 14 mph 18 mph 83% 0 in 0.00 W/m2
03:00 31.4 °F 26.8 °F 29.94 in West 13 mph 18 mph 83% 0 in 0.00 W/m2
03:05 31.2 °F 26.6 °F 29.95 in West 12 mph 18 mph 83% 0 in 0.00 W/m2
03:10 30.9 °F 26.6 °F 29.95 in WNW 14 mph 18 mph 84% 0 in 0.00 W/m2
03:15 30.9 °F 26.3 °F 29.95 in West 9 mph 16 mph 83% 0 in 0.00 W/m2
03:20 30.9 °F 26.6 °F 29.95 in West 14 mph 16 mph 84% 0 in 0.00 W/m2
03:25 30.7 °F 26.1 °F 29.95 in West 9 mph 16 mph 83% 0 in 0.00 W/m2
03:30 30.6 °F 26.3 °F 29.95 in WSW 12 mph 16 mph 84% 0 in 0.00 W/m2
03:35 29.8 °F 25.6 °F 29.95 in WSW 8 mph 16 mph 84% 0 in 0.00 W/m2
03:40 29.9 °F 25.9 °F 29.95 in WSW 10 mph 16 mph 85% 0 in 0.00 W/m2
03:45 29.9 °F 25.9 °F 29.95 in West 10 mph 16 mph 85% 0 in 0.00 W/m2
03:50 29.9 °F 25.9 °F 29.95 in WSW 10 mph 13 mph 85% 0 in 0.00 W/m2
03:55 29.9 °F 25.9 °F 29.95 in West 9 mph 13 mph 85% 0 in 0.00 W/m2
04:00 29.7 °F 25.5 °F 29.95 in WNW 6 mph 12 mph 84% 0 in 0.00 W/m2
04:05 29.4 °F 25.4 °F 29.95 in NW 4 mph 10 mph 85% 0 in 0.00 W/m2
04:10 29.2 °F 25.3 °F 29.95 in NW 3 mph 10 mph 85% 0 in 0.00 W/m2
04:15 28.4 °F 24.2 °F 29.96 in Calm   10 mph 84% 0 in 0.00 W/m2
04:20 28.1 °F 24.7 °F 29.96 in WSW 4 mph 6 mph 87% 0 in 0.00 W/m2
04:25 28.2 °F 24.8 °F 29.96 in WSW 3 mph 5 mph 87% 0 in 0.00 W/m2
04:30 28.4 °F 25 °F 29.96 in West 4 mph 11 mph 87% 0 in 0.00 W/m2
04:35 29.8 °F 26.7 °F 29.96 in West 10 mph 16 mph 88% 0 in 0.00 W/m2
04:40 31.2 °F 27.2 °F 29.96 in West 7 mph 16 mph 85% 0 in 0.00 W/m2
04:45 31.1 °F 26.5 °F 29.97 in WNW 3 mph 16 mph 83% 0 in 0.00 W/m2
04:50 30.2 °F 25.7 °F 29.97 in WSW 7 mph 16 mph 83% 0 in 0.00 W/m2
04:55 29.4 °F 25.4 °F 29.98 in West 8 mph 9 mph 85% 0 in 0.00 W/m2
05:00 29.2 °F 25.5 °F 29.98 in WNW 7 mph 9 mph 86% 0 in 0.00 W/m2
05:05 29.3 °F 25.6 °F 29.98 in WNW 7 mph 9 mph 86% 0 in 0.00 W/m2
05:10 30.4 °F 26.7 °F 29.98 in NW 9 mph 10 mph 86% 0 in 0.00 W/m2
05:15 31 °F 27 °F 29.98 in NW 9 mph 11 mph 85% 0 in 0.00 W/m2
05:20 31 °F 27 °F 29.98 in NW 6 mph 11 mph 85% 0 in 0.00 W/m2
05:25 30.4 °F 25.9 °F 29.97 in NNW 5 mph 11 mph 83% 0 in 0.00 W/m2
05:30 29.8 °F 25.6 °F 29.97 in North 8 mph 11 mph 84% 0 in 0.00 W/m2
05:35 29.5 °F 25.5 °F 29.97 in NNW 9 mph 9 mph 85% 0 in 0.00 W/m2
05:40 30.3 °F 26.9 °F 29.97 in NNW 12 mph 14 mph 87% 0 in 0.00 W/m2
05:45 31.2 °F 27.2 °F 29.98 in WNW 8 mph 14 mph 85% 0 in 0.00 W/m2
05:50 31 °F 26.7 °F 29.98 in WNW 8 mph 13 mph 84% 0 in 0.00 W/m2
05:55 30.4 °F 26.4 °F 29.98 in WNW 5 mph 13 mph 85% 0 in 0.00 W/m2
06:00 30.4 °F 26.7 °F 29.97 in WNW 5 mph 13 mph 86% 0 in 0.00 W/m2
06:05 30.4 °F 26.4 °F 29.97 in WNW 8 mph 9 mph 85% 0 in 0.00 W/m2
06:10 30.8 °F 27.1 °F 29.97 in WNW 7 mph 10 mph 86% 0 in 0.00 W/m2
06:15 31.1 °F 27.1 °F 29.97 in WNW 7 mph 10 mph 85% 0 in 0.00 W/m2
06:20 31.1 °F 27.1 °F 29.97 in WNW 9 mph 10 mph 85% 0 in 0.00 W/m2
06:25 31.3 °F 27.3 °F 29.97 in NW 5 mph 12 mph 85% 0 in 0.00 W/m2
06:30 31.5 °F 27.5 °F 29.97 in NW 8 mph 13 mph 85% 0 in 0.00 W/m2
06:35 30.9 °F 26.6 °F 29.97 in NW 7 mph 13 mph 84% 0 in 0.00 W/m2
06:40 30.9 °F 27.2 °F 29.97 in WNW 5 mph 10 mph 86% 0 in 0.00 W/m2
06:45 30.9 °F 27.2 °F 29.97 in NW 4 mph 10 mph 86% 0 in 0.00 W/m2
06:50 30.8 °F 26.8 °F 29.96 in NW 5 mph 9 mph 85% 0 in 0.00 W/m2
06:55 30.5 °F 26.5 °F 29.96 in NW 5 mph 9 mph 85% 0 in 0.00 W/m2
07:00 29.9 °F 25.9 °F 29.96 in NW 3 mph 9 mph 85% 0 in 0.00 W/m2
07:05 29.3 °F 25.6 °F 29.96 in NW 5 mph 8 mph 86% 0 in 0.00 W/m2
07:10 29.1 °F 25.7 °F 29.96 in NW 7 mph 9 mph 87% 0 in 0.00 W/m2
07:15 29.5 °F 25.8 °F 29.96 in NW 8 mph 9 mph 86% 0 in 0.00 W/m2
07:20 29.6 °F 25.9 °F 29.95 in NNW 8 mph 10 mph 86% 0 in 0.00 W/m2
07:25 29.8 °F 26.1 °F 29.96 in NNW 6 mph 11 mph 86% 0 in 0.00 W/m2
07:30 29.8 °F 26.1 °F 29.96 in NNW 8 mph 11 mph 86% 0 in 0.00 W/m2
07:35 29.7 °F 26 °F 29.96 in NW 6 mph 11 mph 86% 0 in 0.00 W/m2
07:40 29.5 °F 26.1 °F 29.96 in NW 5 mph 11 mph 87% 0 in 0.00 W/m2
07:45 29 °F 25.3 °F 29.96 in NNW 5 mph 9 mph 86% 0 in 0.00 W/m2
07:50 28.5 °F 24.8 °F 29.96 in NNW 4 mph 9 mph 86% 0 in 0.00 W/m2
07:55 28.4 °F 25 °F 29.96 in West 4 mph 9 mph 87% 0 in 0.00 W/m2
08:00 27.3 °F 23.7 °F 29.96 in WSW 6 mph 7 mph 86% 0 in 0.00 W/m2
08:05 26.2 °F 22.9 °F 29.96 in SW 6 mph 8 mph 87% 0 in 0.00 W/m2
08:10 25.3 °F 22.2 °F 29.97 in SW 5 mph 8 mph 88% 0 in 5.00 W/m2
08:15 24.6 °F 21.8 °F 29.97 in SW 5 mph 8 mph 89% 0 in 7.00 W/m2
08:20 24.3 °F 21.8 °F 29.97 in WSW 3 mph 7 mph 90% 0 in 11.00 W/m2
08:25 24.3 °F 22.1 °F 29.97 in WSW 4 mph 7 mph 91% 0 in 12.00 W/m2
08:30 24.6 °F 22.6 °F 29.97 in West 7 mph 7 mph 92% 0 in 14.00 W/m2
08:35 25.2 °F 23.5 °F 29.97 in West 7 mph 8 mph 93% 0 in 16.00 W/m2
08:40 25.4 °F 23.4 °F 29.97 in West 6 mph 8 mph 92% 0 in 18.00 W/m2
08:45 25.4 °F 23.4 °F 29.97 in West 4 mph 8 mph 92% 0 in 21.00 W/m2
08:50 25.6 °F 23.6 °F 29.97 in West 4 mph 7 mph 92% 0 in 26.00 W/m2
08:55 25.6 °F 23.3 °F 29.97 in West 4 mph 6 mph 91% 0 in 33.00 W/m2
09:00 25.6 °F 23.3 °F 29.98 in WSW 4 mph 6 mph 91% 0 in 42.00 W/m2
09:05 25.7 °F 23.4 °F 29.98 in SW 4 mph 6 mph 91% 0 in 51.00 W/m2
09:10 26 °F 23.7 °F 29.98 in SW 3 mph 5 mph 91% 0 in 62.00 W/m2
09:15 26.1 °F 23.8 °F 29.98 in SW 1 mph 5 mph 91% 0 in 70.00 W/m2
09:20 26.1 °F 23.8 °F 29.98 in SW 4 mph 4 mph 91% 0 in 84.00 W/m2
09:25 26.1 °F 23.8 °F 29.98 in WSW 3 mph 4 mph 91% 0 in 97.00 W/m2
09:30 26.1 °F 23.6 °F 29.98 in WSW 5 mph 5 mph 90% 0 in 109.00 W/m2
09:35 26 °F 23.5 °F 29.98 in WSW 3 mph 5 mph 90% 0 in 123.00 W/m2
09:40 26.3 °F 23.8 °F 29.98 in WSW 2 mph 5 mph 90% 0 in 132.00 W/m2
09:45 26.7 °F 24.4 °F 29.98 in WSW 2 mph 4 mph 91% 0 in 141.00 W/m2
09:50 27.2 °F 24.7 °F 29.98 in SW 2 mph 4 mph 90% 0 in 151.00 W/m2
09:55 27.6 °F 24.8 °F 29.98 in SW 2 mph 4 mph 89% 0 in 162.00 W/m2
10:00 28.3 °F 25.5 °F 29.98 in SW 3 mph 3 mph 89% 0 in 176.00 W/m2
10:05 28.8 °F 25.7 °F 29.98 in SW 3 mph 3 mph 88% 0 in 185.00 W/m2
10:10 29.2 °F 25.8 °F 29.98 in Calm   3 mph 87% 0 in 197.00 W/m2
10:15 29.7 °F 26.3 °F 29.98 in Calm   3 mph 87% 0 in 209.00 W/m2
10:20 30.4 °F 26.7 °F 29.98 in Calm   3 mph 86% 0 in 220.00 W/m2
10:25 31 °F 27 °F 29.98 in NW 2 mph 3 mph 85% 0 in 232.00 W/m2
10:30 31.5 °F 27.2 °F 29.98 in Calm   3 mph 84% 0 in 243.00 W/m2
10:35 32.3 °F 27.7 °F 29.98 in Calm   2 mph 83% 0 in 251.00 W/m2
10:40 32.8 °F 27.9 °F 29.98 in Calm   2 mph 82% 0 in 260.00 W/m2
10:45 32.7 °F 27.5 °F 29.98 in NW 2 mph 2 mph 81% 0 in 267.00 W/m2
10:50 32.5 °F 27.3 °F 29.98 in NW 1 mph 3 mph 81% 0 in 278.00 W/m2
10:55 32.6 °F 27.7 °F 29.97 in NW 2 mph 3 mph 82% 0 in 287.00 W/m2
11:00 32.7 °F 27.5 °F 29.98 in NW 1 mph 3 mph 81% 0 in 292.00 W/m2
11:05 32.9 °F 27.7 °F 29.97 in NW 1 mph 3 mph 81% 0 in 299.00 W/m2
11:10 32.9 °F 27.7 °F 29.97 in NW 1 mph 3 mph 81% 0 in 304.00 W/m2
11:15 32.9 °F 27.7 °F 29.98 in SW 3 mph 5 mph 81% 0 in 311.00 W/m2
11:20 32.9 °F 27.7 °F 29.98 in SW 4 mph 5 mph 81% 0 in 316.00 W/m2
11:25 32.8 °F 27.6 °F 29.98 in SW 3 mph 5 mph 81% 0 in 322.00 W/m2
11:30 33 °F 27.8 °F 29.98 in SW 4 mph 5 mph 81% 0 in 325.00 W/m2
11:35 32.9 °F 27.7 °F 29.98 in WSW 4 mph 5 mph 81% 0 in 330.00 W/m2
11:40 32.7 °F 27.5 °F 29.97 in WSW 4 mph 5 mph 81% 0 in 330.00 W/m2
11:45 33 °F 27.8 °F 29.97 in SW 3 mph 5 mph 81% 0 in 336.00 W/m2
11:50 33.6 °F 28.1 °F 29.97 in SW 4 mph 6 mph 80% 0 in 341.00 W/m2
11:55 33.7 °F 27.9 °F 29.98 in SW 4 mph 7 mph 79% 0 in 345.00 W/m2
12:00 33.9 °F 28.4 °F 29.98 in SW 5 mph 8 mph 80% 0 in 348.00 W/m2
12:05 34.5 °F 28.3 °F 29.98 in SW 3 mph 8 mph 78% 0 in 350.00 W/m2
12:10 34.5 °F 28.3 °F 29.97 in SSW 6 mph 7 mph 78% 0 in 352.00 W/m2
12:15 34.9 °F 28.7 °F 29.97 in SSW 5 mph 7 mph 78% 0 in 353.00 W/m2
12:20 35.2 °F 28.7 °F 29.97 in SW 4 mph 7 mph 77% 0 in 355.00 W/m2
12:25 35.3 °F 28.8 °F 29.97 in SSW 7 mph 8 mph 77% 0 in 355.00 W/m2
12:30 35.4 °F 28.9 °F 29.97 in SW 6 mph 8 mph 77% 0 in 357.00 W/m2
12:35 35.3 °F 28.8 °F 29.97 in SSW 6 mph 9 mph 77% 0 in 355.00 W/m2
12:40 34.9 °F 28.7 °F 29.97 in WSW 5 mph 9 mph 78% 0 in 355.00 W/m2
12:45 34.9 °F 28.7 °F 29.97 in SW 4 mph 9 mph 78% 0 in 355.00 W/m2
12:50 35.1 °F 28.9 °F 29.97 in SW 3 mph 9 mph 78% 0 in 353.00 W/m2
12:55 35.4 °F 29.2 °F 29.97 in WSW 7 mph 7 mph 78% 0 in 353.00 W/m2
13:00 35.1 °F 29.2 °F 29.97 in WSW 8 mph 9 mph 79% 0 in 352.00 W/m2
13:05 34.8 °F 29.3 °F 29.96 in WSW 5 mph 9 mph 80% 0 in 350.00 W/m2
13:10 34.9 °F 29.4 °F 29.97 in West 4 mph 9 mph 80% 0 in 346.00 W/m2
13:15 35 °F 29.1 °F 29.96 in West 4 mph 9 mph 79% 0 in 345.00 W/m2
13:20 35.3 °F 29.4 °F 29.96 in WSW 3 mph 9 mph 79% 0 in 341.00 W/m2
13:25 35.8 °F 29.9 °F 29.96 in WSW 3 mph 4 mph 79% 0 in 338.00 W/m2
13:30 36.1 °F 29.9 °F 29.96 in WSW 1 mph 4 mph 78% 0 in 334.00 W/m2
13:35 36.8 °F 30.3 °F 29.95 in Calm   4 mph 77% 0 in 330.00 W/m2
13:40 37.9 °F 31 °F 29.95 in SW 1 mph 3 mph 76% 0 in 329.00 W/m2
13:45 38.9 °F 31 °F 29.95 in South 2 mph 3 mph 73% 0 in 322.00 W/m2
13:50 39.4 °F 31.5 °F 29.94 in South 1 mph 5 mph 73% 0 in 318.00 W/m2
13:55 39.5 °F 31.2 °F 29.94 in ESE 3 mph 5 mph 72% 0 in 313.00 W/m2
14:00 39.3 °F 31.4 °F 29.94 in East 2 mph 6 mph 73% 0 in 306.00 W/m2
14:05 39.4 °F 31.1 °F 29.93 in ESE 3 mph 6 mph 72% 0 in 301.00 W/m2
14:10 39.3 °F 31 °F 29.94 in SE 3 mph 6 mph 72% 0 in 294.00 W/m2
14:15 39.4 °F 30.8 °F 29.94 in SE 3 mph 6 mph 71% 0 in 287.00 W/m2
14:20 39.5 °F 30.9 °F 29.93 in SE 3 mph 4 mph 71% 0 in 278.00 W/m2
14:25 39.6 °F 31 °F 29.94 in SE 2 mph 5 mph 71% 0 in 269.00 W/m2
14:30 39.7 °F 30.7 °F 29.93 in SE 2 mph 5 mph 70% 0 in 260.00 W/m2
14:35 40.1 °F 31.1 °F 29.94 in SSE 4 mph 5 mph 70% 0 in 251.00 W/m2
14:40 40.2 °F 31.2 °F 29.93 in SSE 4 mph 6 mph 70% 0 in 239.00 W/m2
14:45 39.9 °F 31.3 °F 29.93 in SSE 6 mph 9 mph 71% 0 in 229.00 W/m2
14:50 39.1 °F 30.8 °F 29.93 in SSE 6 mph 9 mph 72% 0 in 218.00 W/m2
14:55 38.6 °F 30.7 °F 29.93 in SE 6 mph 9 mph 73% 0 in 206.00 W/m2
15:00 38.1 °F 30.5 °F 29.93 in SE 5 mph 9 mph 74% 0 in 193.00 W/m2
15:05 38 °F 30.4 °F 29.93 in SE 5 mph 8 mph 74% 0 in 181.00 W/m2
15:10 37.7 °F 30.2 °F 29.93 in SSE 7 mph 9 mph 74% 0 in 171.00 W/m2
15:15 37.5 °F 30.3 °F 29.92 in SE 5 mph 9 mph 75% 0 in 158.00 W/m2
15:20 37.4 °F 30.2 °F 29.92 in SSE 5 mph 8 mph 75% 0 in 146.00 W/m2
15:25 37.5 °F 30.3 °F 29.92 in SSE 6 mph 8 mph 75% 0 in 134.00 W/m2
15:30 37.5 °F 30.3 °F 29.92 in SSE 3 mph 8 mph 75% 0 in 121.00 W/m2
15:35 37.5 °F 30 °F 29.92 in SSE 5 mph 7 mph 74% 0 in 111.00 W/m2
15:40 37.3 °F 29.8 °F 29.92 in SSE 8 mph 9 mph 74% 0 in 100.00 W/m2
15:45 37.2 °F 30 °F 29.91 in SSE 6 mph 9 mph 75% 0 in 90.00 W/m2
15:50 37.1 °F 29.9 °F 29.91 in South 4 mph 9 mph 75% 0 in 77.00 W/m2
15:55 37 °F 29.8 °F 29.91 in SSE 3 mph 8 mph 75% 0 in 67.00 W/m2
16:00 37 °F 29.8 °F 29.92 in SSE 5 mph 8 mph 75% 0 in 58.00 W/m2
16:05 36.7 °F 29.5 °F 29.92 in SSE 5 mph 7 mph 75% 0 in 51.00 W/m2
16:10 36.5 °F 29.7 °F 29.92 in SSE 5 mph 9 mph 76% 0 in 42.00 W/m2
16:15 36.4 °F 29.6 °F 29.91 in South 6 mph 9 mph 76% 0 in 33.00 W/m2
16:20 36.3 °F 29.5 °F 29.91 in South 5 mph 8 mph 76% 0 in 25.00 W/m2
16:25 36.2 °F 29.4 °F 29.91 in SSE 5 mph 8 mph 76% 0 in 21.00 W/m2
16:30 35.9 °F 29.1 °F 29.91 in SSE 3 mph 7 mph 76% 0 in 19.00 W/m2
16:35 35.6 °F 29.1 °F 29.91 in SE 5 mph 6 mph 77% 0 in 16.00 W/m2
16:40 35.2 °F 29 °F 29.90 in ESE 3 mph 6 mph 78% 0 in 14.00 W/m2
16:45 34.6 °F 28.4 °F 29.91 in ESE 7 mph 7 mph 78% 0 in 12.00 W/m2
16:50 33.9 °F 28.4 °F 29.91 in ESE 4 mph 8 mph 80% 0 in 9.00 W/m2
16:55 33.4 °F 28.2 °F 29.90 in ESE 2 mph 8 mph 81% 0 in 7.00 W/m2
17:00 33.1 °F 27.9 °F 29.90 in ESE 4 mph 8 mph 81% 0 in 5.00 W/m2
17:05 32.8 °F 27.9 °F 29.90 in ESE 4 mph 8 mph 82% 0 in 0.00 W/m2
17:10 32.5 °F 27.6 °F 29.90 in ESE 7 mph 7 mph 82% 0 in 0.00 W/m2
17:15 32.1 °F 27.2 °F 29.90 in East 8 mph 8 mph 82% 0 in 0.00 W/m2
17:20 31.8 °F 27.2 °F 29.90 in East 7 mph 9 mph 83% 0 in 0.00 W/m2
17:25 31.4 °F 26.8 °F 29.91 in ESE 7 mph 9 mph 83% 0 in 0.00 W/m2
17:30 31.1 °F 26.8 °F 29.91 in ESE 8 mph 8 mph 84% 0 in 0.00 W/m2
17:35 31 °F 27 °F 29.90 in ESE 7 mph 9 mph 85% 0 in 0.00 W/m2
17:40 31 °F 27 °F 29.91 in SE 5 mph 9 mph 85% 0 in 0.00 W/m2
17:45 30.7 °F 26.4 °F 29.91 in SE 5 mph 9 mph 84% 0 in 0.00 W/m2
17:50 30.1 °F 26.4 °F 29.90 in ESE 7 mph 9 mph 86% 0 in 0.00 W/m2
17:55 30.2 °F 26.5 °F 29.90 in ESE 6 mph 8 mph 86% 0 in 0.00 W/m2
18:00 30.1 °F 26.4 °F 29.90 in SE 8 mph 8 mph 86% 0 in 0.00 W/m2
18:05 30 °F 26.6 °F 29.90 in SE 7 mph 8 mph 87% 0 in 0.00 W/m2
18:10 30 °F 26.6 °F 29.90 in ESE 7 mph 8 mph 87% 0 in 0.00 W/m2
18:15 30.1 °F 26.7 °F 29.90 in ESE 6 mph 8 mph 87% 0 in 0.00 W/m2
18:20 30 °F 26.6 °F 29.90 in ESE 6 mph 8 mph 87% 0 in 0.00 W/m2
18:25 29.8 °F 26.4 °F 29.90 in ESE 6 mph 8 mph 87% 0 in 0.00 W/m2
18:30 29.5 °F 26.1 °F 29.90 in ESE 7 mph 8 mph 87% 0 in 0.00 W/m2
18:35 29.4 °F 26 °F 29.90 in ESE 8 mph 9 mph 87% 0 in 0.00 W/m2
18:40 29.3 °F 26.2 °F 29.89 in ESE 6 mph 9 mph 88% 0 in 0.00 W/m2
18:45 29.1 °F 26 °F 29.89 in ESE 4 mph 9 mph 88% 0 in 0.00 W/m2
18:50 29.1 °F 26 °F 29.89 in ESE 7 mph 9 mph 88% 0 in 0.00 W/m2
18:55 29 °F 25.9 °F 29.89 in ESE 7 mph 9 mph 88% 0 in 0.00 W/m2
19:00 28.9 °F 25.8 °F 29.89 in ESE 7 mph 8 mph 88% 0 in 0.00 W/m2
19:05 28.6 °F 25.5 °F 29.89 in ESE 7 mph 8 mph 88% 0 in 0.00 W/m2
19:10 28.3 °F 25.2 °F 29.89 in SE 7 mph 9 mph 88% 0 in 0.00 W/m2
19:15 27.9 °F 24.8 °F 29.89 in SE 7 mph 9 mph 88% 0 in 0.00 W/m2
19:20 27.9 °F 25.1 °F 29.88 in ESE 7 mph 9 mph 89% 0 in 0.00 W/m2
19:25 28 °F 25.2 °F 29.88 in ESE 7 mph 9 mph 89% 0 in 0.00 W/m2
19:30 28.1 °F 25.3 °F 29.88 in ESE 6 mph 9 mph 89% 0 in 0.00 W/m2
19:35 27.9 °F 24.8 °F 29.88 in SE 9 mph 9 mph 88% 0 in 0.00 W/m2
19:40 27.7 °F 24.6 °F 29.88 in SE 8 mph 10 mph 88% 0 in 0.00 W/m2
19:45 27.3 °F 24.5 °F 29.88 in ESE 8 mph 10 mph 89% 0 in 0.00 W/m2
19:50 27.3 °F 24.5 °F 29.88 in SE 8 mph 10 mph 89% 0 in 0.00 W/m2
19:55 27.4 °F 24.9 °F 29.88 in SE 7 mph 10 mph 90% 0 in 0.00 W/m2
20:00 27.6 °F 24.8 °F 29.88 in SE 7 mph 9 mph 89% 0 in 0.00 W/m2
20:05 27.9 °F 25.1 °F 29.88 in ESE 6 mph 9 mph 89% 0 in 0.00 W/m2
20:10 27.9 °F 25.1 °F 29.88 in ESE 6 mph 9 mph 89% 0 in 0.00 W/m2
20:15 27.9 °F 25.1 °F 29.88 in SE 7 mph 7 mph 89% 0 in 0.00 W/m2
20:20 27.6 °F 24.5 °F 29.88 in SE 7 mph 8 mph 88% 0 in 0.00 W/m2
20:25 27.3 °F 24.5 °F 29.88 in SE 7 mph 8 mph 89% 0 in 0.00 W/m2
20:30 27 °F 24.2 °F 29.88 in SE 7 mph 8 mph 89% 0 in 0.00 W/m2
20:35 26.8 °F 24.3 °F 29.88 in SSE 8 mph 8 mph 90% 0 in 0.00 W/m2
20:40 26.6 °F 24.1 °F 29.87 in SSE 6 mph 8 mph 90% 0 in 0.00 W/m2
20:45 26.3 °F 23.8 °F 29.87 in SE 8 mph 9 mph 90% 0 in 0.00 W/m2
20:50 26.1 °F 23.6 °F 29.87 in SSE 5 mph 9 mph 90% 0 in 0.00 W/m2
20:55 26.1 °F 23.8 °F 29.87 in SSE 6 mph 8 mph 91% 0 in 0.00 W/m2
21:00 26.3 °F 24 °F 29.87 in SE 7 mph 8 mph 91% 0 in 0.00 W/m2
21:05 26.5 °F 24.2 °F 29.88 in SE 5 mph 8 mph 91% 0 in 0.00 W/m2
21:10 26.9 °F 24.6 °F 29.87 in ESE 3 mph 7 mph 91% 0 in 0.00 W/m2
21:15 27 °F 24.5 °F 29.88 in SE 4 mph 7 mph 90% 0 in 0.00 W/m2
21:20 27.2 °F 24.9 °F 29.88 in SE 4 mph 7 mph 91% 0 in 0.00 W/m2
21:25 27.3 °F 24.8 °F 29.88 in SE 5 mph 5 mph 90% 0 in 0.00 W/m2
21:30 27.4 °F 24.9 °F 29.88 in SE 5 mph 6 mph 90% 0 in 0.00 W/m2
21:35 27.3 °F 24.8 °F 29.87 in SE 5 mph 7 mph 90% 0 in 0.00 W/m2
21:40 27.3 °F 24.8 °F 29.87 in ESE 5 mph 7 mph 90% 0 in 0.00 W/m2
21:45 27.3 °F 24.8 °F 29.88 in ESE 4 mph 6 mph 90% 0 in 0.00 W/m2
21:50 27.1 °F 24.6 °F 29.87 in SE 4 mph 6 mph 90% 0 in 0.00 W/m2
21:55 26.7 °F 24.2 °F 29.88 in SE 5 mph 5 mph 90% 0 in 0.00 W/m2
22:00 26.5 °F 24.2 °F 29.88 in SE 5 mph 7 mph 91% 0 in 0.00 W/m2
22:05 26.6 °F 24.3 °F 29.87 in SE 5 mph 7 mph 91% 0 in 0.00 W/m2
22:10 26.6 °F 24.3 °F 29.87 in ESE 5 mph 7 mph 91% 0 in 0.00 W/m2
22:15 27 °F 24.7 °F 29.87 in ESE 4 mph 7 mph 91% 0 in 0.00 W/m2
22:20 27.2 °F 24.9 °F 29.87 in SE 4 mph 7 mph 91% 0 in 0.00 W/m2
22:25 27.2 °F 24.7 °F 29.87 in SE 7 mph 7 mph 90% 0 in 0.00 W/m2
22:30 26.9 °F 24.4 °F 29.88 in SE 6 mph 8 mph 90% 0 in 0.00 W/m2
22:35 26.8 °F 24.5 °F 29.88 in SE 6 mph 8 mph 91% 0 in 0.00 W/m2
22:40 26.7 °F 24.4 °F 29.87 in SSE 6 mph 8 mph 91% 0 in 0.00 W/m2
22:45 26.6 °F 24.1 °F 29.87 in SSE 5 mph 8 mph 90% 0 in 0.00 W/m2
22:50 26.6 °F 24.3 °F 29.87 in SE 4 mph 8 mph 91% 0 in 0.00 W/m2
22:55 26.5 °F 24.2 °F 29.87 in SE 5 mph 8 mph 91% 0 in 0.00 W/m2
23:00 26.7 °F 24.4 °F 29.87 in SE 5 mph 8 mph 91% 0 in 0.00 W/m2
23:05 26.9 °F 24.6 °F 29.87 in SE 5 mph 7 mph 91% 0 in 0.00 W/m2
23:10 27.1 °F 24.8 °F 29.87 in SE 5 mph 7 mph 91% 0 in 0.00 W/m2
23:15 27.3 °F 25 °F 29.87 in SE 5 mph 7 mph 91% 0 in 0.00 W/m2
23:20 27.5 °F 25.2 °F 29.88 in SSE 5 mph 7 mph 91% 0 in 0.00 W/m2
23:25 27.6 °F 25.1 °F 29.88 in SSE 3 mph 7 mph 90% 0 in 0.00 W/m2
23:30 27.6 °F 25.1 °F 29.88 in SSE 3 mph 6 mph 90% 0 in 0.00 W/m2
23:35 27.8 °F 25.2 °F 29.88 in SSE 4 mph 6 mph 90% 0 in 0.00 W/m2
23:40 27.9 °F 25.3 °F 29.87 in South 4 mph 6 mph 90% 0 in 0.00 W/m2
23:45 28 °F 25.4 °F 29.87 in SSE 4 mph 6 mph 90% 0 in 0.00 W/m2
23:50 28.2 °F 25.6 °F 29.87 in SSE 3 mph 6 mph 90% 0 in 0.00 W/m2
23:55 28.1 °F 25.3 °F 29.87 in SE 4 mph 6 mph 89% 0 in 0.00 W/m2
Bismarck, North Dakota, USA
Compliments of Weather Underground - 4 mb